首页
METAR-TAF:

METAR-TAF

机场 :

纽伦堡机场

纽伦堡, 德国

纬度: 49-30N, 经度: 011-03E, 海拔: 318米

当前天气观测

该预报发布于32分钟前的21:20 UTC
风速2节,风向多变
温度 8°C
湿度 53%
气压 1018 hPa
能见度10公里或以上
1500米以下无云,无积雨云

METAR: EDDN 282120Z VRB02KT CAVOK 08/M01 Q1018

时间: 22:52 (21:52 UTC)

预报

该预报发布于4小时和52分钟前的17:00 UTC
预报有效从28日的 18点(UTC)到 29日的 18点(UTC)
风速4节,风向
能见度10公里或以上
1500米以下无云,无积雨云
几率 30% :
短暂存在
从 29日的 05点(UTC)到 29日的 07点(UTC)
多云层高于1000英尺
成为
从 29日的 10点(UTC)到 29日的 12点(UTC)
风速10节,风向北转西北

TAF: EDDN 281700Z 2818/2918 35004KT CAVOK PROB30 TEMPO 2905/2907 BKN010 BECMG 2910/2912 34010KT

超过4000个机场的气象观测和天气预报(METAR&TAF报告)。

可查询的气象台以黄色和红色小点在地图上表示。

将鼠标移到小点上方,可查看气象台名称。

然后点击查看天气观测和预报。

如需切换地图:点击带黑十字的绿色按钮放大地图;点击带横线的绿色按钮缩小地图;或者点击绿色箭头查看邻近地区的地图。


METAR-TAF: